Time;durP1;ratioP1;P1;durP2;ratioP2;P2;SDS_P1;SDS_P2;PMS_P1;PMS_P2;Temp;Humidity;BMP_temperature;BMP_pressure;BME280_temperature;BME280_humidity;BME280_pressure;Samples;Min_cycle;Max_cycle;Signal;HPM_P1;HPM_P2
2021/07/21 00:08:54;;;;;;;4.65;2.13;;;17.10;99.90;;;;;;20743798;28;20644;-49
2021/07/21 00:19:01;;;;;;;4.10;1.40;;;17.10;99.90;;;;;;20750549;28;20517;-48
2021/07/21 00:29:03;;;;;;;5.35;2.10;;;16.90;99.90;;;;;;20750862;28;20493;-48
2021/07/21 00:39:04;;;;;;;6.22;1.90;;;16.80;99.90;;;;;;20756702;28;20535;-48
2021/07/21 00:49:06;;;;;;;4.50;1.67;;;16.70;99.90;;;;;;20748812;28;20064;-48
2021/07/21 00:59:08;;;;;;;6.32;2.65;;;16.60;99.90;;;;;;20731603;28;20456;-49
2021/07/21 01:09:09;;;;;;;5.30;1.67;;;16.50;99.90;;;;;;20747938;28;20401;-49
2021/07/21 01:19:17;;;;;;;4.85;1.60;;;16.50;99.90;;;;;;20743057;28;20049;-49
2021/07/21 01:29:21;;;;;;;8.10;2.63;;;16.40;99.90;;;;;;20732513;28;20388;-48
2021/07/21 01:39:29;;;;;;;4.75;2.25;;;16.30;99.90;;;;;;20736664;28;20550;-48
2021/07/21 01:49:39;;;;;;;4.90;1.80;;;16.20;99.90;;;;;;20738159;28;20548;-48
2021/07/21 01:59:43;;;;;;;5.60;1.83;;;16.10;99.90;;;;;;20742595;28;20576;-48
2021/07/21 02:09:46;;;;;;;4.53;1.65;;;16.00;99.90;;;;;;20758877;28;20042;-48
2021/07/21 02:19:48;;;;;;;5.93;1.83;;;15.90;99.90;;;;;;20751596;28;20057;-48
2021/07/21 02:29:51;;;;;;;5.28;2.05;;;15.90;99.90;;;;;;20750616;28;20319;-48
2021/07/21 02:39:54;;;;;;;5.20;1.73;;;15.90;99.90;;;;;;20747487;28;20533;-49
2021/07/21 02:49:55;;;;;;;6.65;1.48;;;15.80;99.90;;;;;;20744559;28;20037;-48
2021/07/21 03:00:00;;;;;;;5.30;2.17;;;15.70;99.90;;;;;;20745236;28;20037;-48
2021/07/21 03:10:03;;;;;;;5.03;1.80;;;15.70;99.90;;;;;;20729601;28;20046;-48
2021/07/21 03:20:07;;;;;;;8.07;3.08;;;15.50;99.90;;;;;;20743087;28;20054;-49
2021/07/21 03:30:12;;;;;;;8.27;2.30;;;15.40;99.90;;;;;;20737753;28;20493;-48
2021/07/21 03:40:16;;;;;;;7.70;2.53;;;15.50;99.90;;;;;;20735601;28;20057;-49
2021/07/21 03:50:20;;;;;;;5.03;2.05;;;15.60;99.90;;;;;;20743576;28;20559;-48
2021/07/21 04:00:22;;;;;;;7.93;2.45;;;15.50;99.90;;;;;;20737132;28;20561;-49
2021/07/21 04:10:28;;;;;;;6.35;2.10;;;15.40;99.90;;;;;;20738635;28;20505;-48
2021/07/21 04:20:30;;;;;;;8.13;2.78;;;15.40;99.90;;;;;;20740348;28;20054;-48
2021/07/21 04:30:35;;;;;;;4.97;1.92;;;15.40;99.90;;;;;;20744813;28;20060;-48
2021/07/21 04:40:43;;;;;;;5.78;2.38;;;15.30;99.90;;;;;;20739313;28;20079;-48
2021/07/21 04:50:45;;;;;;;5.00;1.63;;;15.30;99.90;;;;;;20730024;28;20072;-48
2021/07/21 05:00:50;;;;;;;4.93;2.05;;;15.50;99.90;;;;;;20731357;28;20140;-48
2021/07/21 05:10:51;;;;;;;8.45;2.40;;;16.30;99.90;;;;;;20723360;28;20050;-48
2021/07/21 05:20:52;;;;;;;10.77;2.50;;;16.30;99.90;;;;;;20738899;28;20049;-48
2021/07/21 05:30:54;;;;;;;3.08;1.92;;;16.30;99.90;;;;;;20730384;28;20565;-49
2021/07/21 05:40:55;;;;;;;7.50;2.63;;;16.50;99.90;;;;;;20727986;28;20049;-48
2021/07/21 05:50:57;;;;;;;7.78;3.08;;;16.70;99.90;;;;;;20721806;28;20173;-47
2021/07/21 06:00:58;;;;;;;6.43;2.35;;;17.10;99.90;;;;;;20731112;28;20041;-48
2021/07/21 06:10:59;;;;;;;7.50;2.40;;;17.30;99.90;;;;;;20738044;28;20685;-49
2021/07/21 06:21:02;;;;;;;11.27;2.90;;;17.80;99.90;;;;;;20733156;28;20057;-48
2021/07/21 06:31:03;;;;;;;7.78;2.70;;;18.50;99.90;;;;;;20744023;28;20037;-48
2021/07/21 06:41:04;;;;;;;12.40;4.38;;;18.60;99.90;;;;;;20737188;28;20572;-46
2021/07/21 06:51:05;;;;;;;7.38;2.78;;;19.10;99.90;;;;;;20745245;28;20441;-48
2021/07/21 07:01:07;;;;;;;7.10;2.10;;;19.10;99.90;;;;;;20679198;28;20068;-48
2021/07/21 07:11:09;;;;;;;6.82;2.90;;;19.60;99.90;;;;;;20748356;28;20070;-49
2021/07/21 07:21:11;;;;;;;6.20;2.10;;;19.80;99.90;;;;;;20750111;28;20108;-49
2021/07/21 07:31:12;;;;;;;6.05;2.35;;;19.80;99.90;;;;;;20743431;28;20046;-48
2021/07/21 07:41:14;;;;;;;4.20;1.38;;;20.10;99.90;;;;;;20745455;28;20057;-49
2021/07/21 07:51:15;;;;;;;3.83;1.38;;;20.40;99.90;;;;;;20742374;28;20497;-48
2021/07/21 08:01:16;;;;;;;4.65;1.58;;;20.50;99.90;;;;;;20743309;28;20049;-47
2021/07/21 08:11:17;;;;;;;3.83;1.70;;;21.00;99.90;;;;;;20746729;28;20509;-50
2021/07/21 08:21:19;;;;;;;3.78;1.48;;;21.30;99.90;;;;;;20744582;28;20049;-48
2021/07/21 08:31:20;;;;;;;3.10;1.35;;;21.40;99.90;;;;;;20730516;28;20035;-49
2021/07/21 08:41:22;;;;;;;4.75;1.50;;;22.00;99.90;;;;;;20720948;28;20073;-49
2021/07/21 08:51:24;;;;;;;3.95;1.33;;;22.20;99.90;;;;;;20734305;28;20053;-49
2021/07/21 09:01:26;;;;;;;5.45;1.75;;;22.30;99.90;;;;;;20724886;28;20245;-49
2021/07/21 09:11:31;;;;;;;5.53;2.75;;;22.50;99.90;;;;;;20726390;28;20496;-48
2021/07/21 09:21:35;;;;;;;2.83;1.27;;;22.70;99.90;;;;;;20721281;28;20482;-50
2021/07/21 09:31:40;;;;;;;2.90;1.20;;;23.00;99.90;;;;;;20747279;28;20061;-50
2021/07/21 09:41:53;;;;;;;4.72;1.58;;;23.50;99.90;;;;;;20683557;28;20056;-50
2021/07/21 09:52:22;;;;;;;5.45;1.95;;;23.60;99.90;;;;;;20732670;28;20076;-49
2021/07/21 10:02:27;;;;;;;5.07;1.88;;;23.70;99.90;;;;;;20761337;28;20160;-50
2021/07/21 10:12:28;;;;;;;3.45;1.52;;;23.90;99.90;;;;;;20725965;28;20055;-47
2021/07/21 10:22:29;;;;;;;4.07;1.98;;;23.90;99.90;;;;;;20724616;28;20207;-50
2021/07/21 10:32:33;;;;;;;5.38;1.60;;;24.70;99.90;;;;;;20765985;28;20077;-50
2021/07/21 10:42:34;;;;;;;4.25;1.83;;;24.50;99.90;;;;;;20720579;28;20053;-48
2021/07/21 10:52:48;;;;;;;4.55;1.65;;;24.70;99.90;;;;;;20750440;28;20657;-49
2021/07/21 11:02:51;;;;;;;5.55;2.00;;;25.30;99.90;;;;;;20750164;28;20046;-49
2021/07/21 11:12:52;;;;;;;3.75;1.52;;;25.50;99.90;;;;;;20773839;28;20497;-47
2021/07/21 11:22:53;;;;;;;5.20;2.28;;;25.60;99.90;;;;;;20747591;28;20580;-49
2021/07/21 11:32:55;;;;;;;3.60;1.98;;;26.00;99.90;;;;;;20738760;28;20049;-49
2021/07/21 11:42:56;;;;;;;6.38;2.63;;;26.30;98.60;;;;;;20726814;28;20053;-47
2021/07/21 11:53:06;;;;;;;6.63;2.80;;;26.00;99.90;;;;;;20730980;28;20052;-47
2021/07/21 12:03:08;;;;;;;4.75;1.98;;;25.20;99.80;;;;;;20730549;28;20034;-47
2021/07/21 12:13:10;;;;;;;4.53;1.77;;;24.90;99.90;;;;;;20698744;28;20146;-47
2021/07/21 12:23:14;;;;;;;4.20;1.40;;;25.10;99.90;;;;;;20703615;28;20081;-47
2021/07/21 12:33:19;;;;;;;4.05;1.90;;;25.30;99.90;;;;;;20731282;28;20068;-47
2021/07/21 12:43:26;;;;;;;4.03;1.83;;;25.60;99.90;;;;;;20701325;28;20034;-47
2021/07/21 12:53:33;;;;;;;6.73;2.33;;;26.90;99.90;;;;;;20693476;28;20079;-47
2021/07/21 13:03:46;;;;;;;6.93;1.80;;;27.20;99.60;;;;;;20733040;28;20060;-47
2021/07/21 13:13:50;;;;;;;4.05;1.83;;;27.50;98.70;;;;;;20729946;28;20126;-47
2021/07/21 13:23:57;;;;;;;4.53;1.50;;;27.30;98.40;;;;;;20719402;28;20136;-47
2021/07/21 13:33:59;;;;;;;;;;;26.40;99.70;;;;;;20730920;28;20041;-47
2021/07/21 13:44:17;;;;;;;4.75;1.63;;;25.80;99.50;;;;;;20717934;28;20350;-47
2021/07/21 13:54:23;;;;;;;5.03;2.00;;;25.40;99.90;;;;;;20728416;28;20033;-47
2021/07/21 14:04:26;;;;;;;3.28;1.63;;;25.20;99.90;;;;;;20740800;28;20060;-47
2021/07/21 14:14:27;;;;;;;4.38;1.58;;;25.40;99.90;;;;;;20736985;28;20054;-47
2021/07/21 14:24:29;;;;;;;5.50;2.65;;;25.50;99.90;;;;;;20742950;28;20054;-47
2021/07/21 14:34:30;;;;;;;4.28;1.95;;;25.60;99.90;;;;;;20730016;28;20260;-47
2021/07/21 14:44:34;;;;;;;6.05;2.13;;;25.90;99.90;;;;;;20737067;28;20108;-47
2021/07/21 14:54:35;;;;;;;6.75;2.67;;;25.80;99.90;;;;;;20730012;28;20073;-47
2021/07/21 15:04:36;;;;;;;6.10;2.65;;;26.10;99.90;;;;;;20736417;28;20045;-47
2021/07/21 15:14:37;;;;;;;4.35;1.92;;;26.20;99.90;;;;;;20721843;28;20456;-47
2021/07/21 15:24:39;;;;;;;7.35;3.70;;;26.60;99.90;;;;;;20679594;28;20057;-47
2021/07/21 15:34:41;;;;;;;6.45;2.83;;;26.50;99.60;;;;;;20728960;28;20088;-47
2021/07/21 15:44:42;;;;;;;5.32;2.20;;;25.50;99.90;;;;;;20732939;28;20133;-47
2021/07/21 15:54:43;;;;;;;7.07;2.72;;;25.10;99.90;;;;;;20732682;28;20058;-47
2021/07/21 16:04:45;;;;;;;5.43;2.72;;;24.80;99.90;;;;;;20725500;28;20045;-47
2021/07/21 16:14:46;;;;;;;6.38;2.75;;;24.60;99.90;;;;;;20722077;28;20095;-47
2021/07/21 16:24:47;;;;;;;9.05;2.90;;;24.60;99.90;;;;;;20730787;28;20286;-47
2021/07/21 16:34:48;;;;;;;15.13;2.97;;;24.50;99.90;;;;;;20737202;28;20121;-47
2021/07/21 16:44:49;;;;;;;6.88;2.30;;;24.70;99.90;;;;;;20727793;28;20192;-47
2021/07/21 16:54:51;;;;;;;5.05;2.60;;;24.70;99.90;;;;;;20719525;28;20045;-47
2021/07/21 17:04:52;;;;;;;5.43;2.45;;;24.60;99.90;;;;;;20705114;28;20431;-47
2021/07/21 17:14:53;;;;;;;5.53;2.92;;;24.40;99.90;;;;;;20717660;28;20064;-47
2021/07/21 17:24:55;;;;;;;4.90;2.30;;;24.20;99.90;;;;;;20705526;28;20077;-47
2021/07/21 17:34:56;;;;;;;6.93;2.42;;;23.60;99.90;;;;;;20721390;28;20088;-46
2021/07/21 17:44:57;;;;;;;7.03;2.38;;;23.40;99.90;;;;;;20678291;28;20076;-47
2021/07/21 17:54:59;;;;;;;4.10;2.60;;;23.10;99.90;;;;;;20723865;28;20041;-47
2021/07/21 18:05:00;;;;;;;6.32;2.13;;;22.90;99.90;;;;;;20717554;28;20301;-47
2021/07/21 18:15:01;;;;;;;3.90;2.08;;;22.80;99.90;;;;;;20715050;28;20141;-49
2021/07/21 18:25:05;;;;;;;5.93;2.40;;;22.80;99.90;;;;;;20733274;28;20056;-49
2021/07/21 18:35:07;;;;;;;5.60;2.20;;;22.70;99.90;;;;;;20751612;28;20119;-49
2021/07/21 18:45:09;;;;;;;7.03;2.35;;;22.60;99.90;;;;;;20697544;28;20077;-50
2021/07/21 18:55:11;;;;;;;4.78;2.28;;;22.50;99.90;;;;;;20739477;28;20153;-49
2021/07/21 19:05:14;;;;;;;4.38;2.55;;;22.40;99.90;;;;;;20739004;28;20057;-49
2021/07/21 19:15:18;;;;;;;5.15;2.30;;;22.20;99.90;;;;;;20724482;28;20099;-49
2021/07/21 19:25:20;;;;;;;7.43;2.25;;;21.90;99.90;;;;;;20732578;28;20060;-49
2021/07/21 19:35:22;;;;;;;7.43;2.28;;;21.80;99.90;;;;;;20733831;28;20394;-49
2021/07/21 19:45:23;;;;;;;6.55;2.47;;;21.80;99.90;;;;;;20724358;28;20052;-49
2021/07/21 19:55:24;;;;;;;6.43;2.90;;;21.60;99.90;;;;;;20734680;28;20057;-50
2021/07/21 20:05:25;;;;;;;4.40;2.47;;;21.40;99.90;;;;;;20733006;28;20057;-49
2021/07/21 20:15:27;;;;;;;5.35;2.40;;;21.10;99.90;;;;;;20741689;28;20041;-49
2021/07/21 20:25:28;;;;;;;9.55;2.45;;;20.90;99.90;;;;;;20739098;28;20054;-49
2021/07/21 20:35:30;;;;;;;6.90;2.78;;;20.70;99.90;;;;;;20739355;28;20056;-50
2021/07/21 20:45:33;;;;;;;5.90;2.13;;;20.60;99.90;;;;;;20738444;28;20073;-49
2021/07/21 20:55:35;;;;;;;3.92;1.75;;;20.40;99.90;;;;;;20724235;28;20050;-50
2021/07/21 21:05:37;;;;;;;5.38;1.83;;;20.30;99.90;;;;;;20736246;28;20264;-49
2021/07/21 21:15:38;;;;;;;6.57;3.00;;;20.20;99.90;;;;;;20724216;28;20045;-50
2021/07/21 21:25:41;;;;;;;7.85;2.53;;;20.10;99.90;;;;;;20732669;28;20057;-49
2021/07/21 21:35:42;;;;;;;6.45;2.67;;;19.90;99.90;;;;;;20705953;28;20084;-49
2021/07/21 21:45:43;;;;;;;5.28;1.88;;;19.80;99.90;;;;;;20716402;28;20305;-50
2021/07/21 21:55:44;;;;;;;7.28;2.47;;;19.70;99.90;;;;;;20727983;28;20052;-50
2021/07/21 22:05:45;;;;;;;7.20;2.25;;;19.70;99.90;;;;;;20730829;28;20064;-49
2021/07/21 22:15:50;;;;;;;4.57;1.67;;;19.60;99.90;;;;;;20729503;28;20060;-51
2021/07/21 22:26:00;;;;;;;6.18;3.08;;;19.40;99.90;;;;;;20759361;28;20073;-50
2021/07/21 22:36:08;;;;;;;4.88;2.17;;;19.30;99.90;;;;;;20744022;28;20125;-48
2021/07/21 22:46:11;;;;;;;7.32;1.77;;;19.20;99.90;;;;;;20752906;28;20176;-49
2021/07/21 22:56:13;;;;;;;5.90;2.28;;;19.10;99.90;;;;;;20765419;28;20037;-48
2021/07/21 23:06:52;;;;;;;6.65;1.92;;;18.90;99.90;;;;;;20759006;28;20046;-49
2021/07/21 23:16:57;;;;;;;5.88;2.10;;;18.80;99.90;;;;;;20760012;28;20107;-49
2021/07/21 23:26:59;;;;;;;10.05;2.40;;;18.70;99.90;;;;;;20751274;28;20057;-48
2021/07/21 23:37:01;;;;;;;10.45;2.50;;;18.50;99.90;;;;;;20751510;28;20055;-49
2021/07/21 23:47:02;;;;;;;7.43;2.85;;;18.30;99.90;;;;;;20760293;28;20044;-48
2021/07/21 23:57:04;;;;;;;8.43;2.50;;;18.20;99.90;;;;;;20762634;28;20042;-49
